Tipp City, Ohio
Current Conditions -  °F | °C
As of 3:56 AM on Saturday 22 Nov 2014 (Local Time) from KDAY Reporting Station
Freezing Drizzle Freezing Drizzle  
Wind Chill: 23°   Ceiling: 2900
Heat Index: 32°   Visibility: 10mi
Dew Point: 18°   Wind: 13mph
Humidity: 56%   Direction: 180°S
Pressure: 30.3"   Gusts: NA
Location:  39.96°N, 84.18°W
Report Text: KDAY 220856Z 18011KT 10SM -FZDZ BKN029 OVC039 00/M08 A3030 RMK AO2 SLP270 FZDZB32 P0000 60000 I1000 I3000 T00001078 58015
Loading
Personal Weather Stations






























Interactive Weather Map New forecast layout! Learn more

10-Day Weather Forecast

Advertisements
Track Severe Weather on mobile